Time;durP1;ratioP1;P1;durP2;ratioP2;P2;SDS_P1;SDS_P2;PMS_P1;PMS_P2;Temp;Humidity;BMP_temperature;BMP_pressure;BME280_temperature;BME280_humidity;BME280_pressure;Samples;Min_cycle;Max_cycle;Signal;HPM_P1;HPM_P2
2023/07/20 00:01:24;;;;;;;;;;;21.20;48.10;;;17.49;82.40;95435.16;5030866;28;19916;-42
2023/07/20 00:03:54;;;;;;;;;;;21.20;48.10;;;17.50;81.58;95439.44;5033086;28;19909;-45
2023/07/20 00:06:29;;;;;;;;;;;21.20;48.10;;;17.46;76.38;95439.25;5031377;28;19913;-44
2023/07/20 00:08:56;;;;;;;;;;;21.20;48.00;;;17.50;77.48;95437.53;5028638;28;19909;-43
2023/07/20 00:11:27;;;;;;;;;;;21.20;48.00;;;17.51;77.21;95441.78;5032887;28;19912;-43
2023/07/20 00:13:53;;;;;;;;;;;21.30;48.00;;;17.51;78.00;95438.31;5032058;28;19931;-42
2023/07/20 00:16:19;;;;;;;;;;;21.30;47.90;;;17.52;76.06;95439.91;5032587;28;20363;-43
2023/07/20 00:18:45;;;;;;;;;;;21.30;47.90;;;17.55;76.71;95444.69;5023508;28;19940;-44
2023/07/20 00:21:10;;;;;;;;;;;21.30;48.50;;;17.53;78.88;95441.50;5032585;28;20017;-42
2023/07/20 00:23:36;;;;;;;;;;;21.40;47.90;;;17.53;79.52;95441.50;5030291;28;19912;-47
2023/07/20 00:26:02;;;;;;;;;;;21.40;47.90;;;17.56;79.88;95440.88;5031050;28;20386;-43
2023/07/20 00:28:27;;;;;;;;;;;21.40;47.90;;;17.63;80.35;95446.59;5032417;28;19912;-43
2023/07/20 00:30:53;;;;;;;;;;;21.40;47.90;;;17.66;81.09;95440.59;5031061;28;19909;-42
2023/07/20 00:33:19;;;;;;;;;;;21.50;48.00;;;17.74;80.07;95444.41;5032273;28;19909;-42
2023/07/20 00:35:45;;;;;;;;;;;21.50;48.00;;;17.74;75.78;95441.72;5030960;28;20372;-45
2023/07/20 00:38:11;;;;;;;;;;;21.50;48.00;;;17.83;77.16;95439.06;5032750;28;19916;-42
2023/07/20 00:40:41;;;;;;;;;;;21.60;48.00;;;17.86;76.63;95436.53;5032449;28;20287;-43
2023/07/20 00:43:08;;;;;;;;;;;21.60;48.00;;;17.87;75.81;95440.84;5023626;28;19909;-43
2023/07/20 00:45:36;;;;;;;;;;;21.60;47.90;;;17.84;74.28;95436.06;5028989;28;19908;-43
2023/07/20 00:48:04;;;;;;;;;;;21.70;47.90;;;17.87;75.14;95438.13;5026327;28;20417;-43
2023/07/20 00:50:32;;;;;;;;;;;21.70;47.80;;;17.88;75.24;95437.00;5029050;28;19909;-43
2023/07/20 00:52:58;;;;;;;;;;;21.70;47.80;;;17.89;74.71;95443.19;5032066;28;19908;-44
2023/07/20 00:55:26;;;;;;;;;;;21.70;47.80;;;17.85;73.87;95437.66;5029056;28;19916;-43
2023/07/20 00:57:53;;;;;;;;;;;21.70;47.70;;;17.85;73.61;95437.66;5027328;28;20367;-42
2023/07/20 01:00:19;;;;;;;;;;;21.70;47.70;;;17.84;73.79;95437.97;5034861;28;19908;-46
2023/07/20 01:02:45;;;;;;;;;;;21.70;47.70;;;17.87;73.20;95446.22;5032237;28;19919;-42
2023/07/20 01:05:13;;;;;;;;;;;21.70;47.70;;;17.87;73.25;95442.72;5031359;28;19912;-42
2023/07/20 01:07:55;;;;;;;;;;;21.70;47.60;;;17.87;73.02;95435.44;5029543;28;19912;-44
2023/07/20 01:10:40;;;;;;;;;;;21.70;47.60;;;17.86;73.49;95439.22;5031188;28;19909;-43
2023/07/20 01:13:09;;;;;;;;;;;21.70;47.60;;;17.86;72.67;95441.13;5029460;28;19920;-44
2023/07/20 01:15:35;;;;;;;;;;;21.70;47.60;;;17.84;72.36;95441.47;5027880;28;19936;-44
2023/07/20 01:18:01;;;;;;;;;;;21.70;47.60;;;17.85;73.64;95439.56;5031089;28;20047;-43
2023/07/20 01:20:32;;;;;;;;;;;21.70;47.60;;;17.83;74.84;95436.38;5032528;28;20007;-43
2023/07/20 01:23:28;;;;;;;;;;;21.70;47.60;;;17.82;76.14;95442.88;5019863;28;19940;-43
2023/07/20 01:26:15;;;;;;;;;;;21.70;47.60;;;17.84;74.54;95435.28;5031823;28;19908;-42
2023/07/20 01:29:13;;;;;;;;;;;21.70;47.60;;;17.80;74.06;95441.28;5031798;28;20352;-43
2023/07/20 01:31:41;;;;;;;;;;;21.70;47.70;;;17.81;76.40;95442.09;5031326;28;19932;-43
2023/07/20 01:34:11;;;;;;;;;;;21.60;47.60;;;17.81;75.61;95436.69;5031037;28;20003;-43
2023/07/20 01:36:38;;;;;;;;;;;21.60;47.70;;;17.77;76.17;95428.44;5031149;28;19962;-43
2023/07/20 01:39:05;;;;;;;;;;;21.60;47.70;;;17.74;76.28;95437.13;5031242;28;20062;-47
2023/07/20 01:41:32;;;;;;;;;;;21.60;47.80;;;17.74;76.67;95431.75;5031730;28;19908;-44
2023/07/20 01:44:02;;;;;;;;;;;21.60;47.80;;;17.74;76.13;95434.44;5030611;28;20381;-43
2023/07/20 01:46:27;;;;;;;;;;;21.60;47.90;;;17.73;75.76;95434.72;5031939;28;19920;-42
2023/07/20 01:48:54;;;;;;;;;;;21.60;47.90;;;17.73;75.37;95426.66;5031013;28;19908;-43
2023/07/20 01:51:20;;;;;;;;;;;21.60;48.00;;;17.73;76.95;95430.13;5032131;28;19912;-43
2023/07/20 01:53:45;;;;;;;;;;;21.70;48.10;;;17.72;76.34;95425.88;5030935;28;19920;-43
2023/07/20 01:56:12;;;;;;;;;;;21.60;48.00;;;17.70;76.00;95428.06;5030902;28;20334;-43
2023/07/20 01:58:38;;;;;;;;;;;21.60;48.00;;;17.72;75.52;95433.94;5031364;28;19908;-48
2023/07/20 02:01:04;;;;;;;;;;;21.70;48.10;;;17.72;75.61;95433.16;5030402;28;19920;-43
2023/07/20 02:03:30;;;;;;;;;;;21.70;48.10;;;17.68;75.43;95433.00;5030911;28;19975;-44
2023/07/20 02:05:59;;;;;;;;;;;21.60;48.00;;;17.69;76.30;95429.19;5028903;28;19947;-44
2023/07/20 02:08:25;;;;;;;;;;;21.60;48.10;;;17.70;79.33;95432.66;5031717;28;20333;-42
2023/07/20 02:10:51;;;;;;;;;;;21.60;48.10;;;17.70;79.44;95441.53;5031851;28;19986;-42
2023/07/20 02:13:17;;;;;;;;;;;21.60;48.20;;;17.68;77.80;95432.19;5030602;28;19915;-43
2023/07/20 02:15:43;;;;;;;;;;;21.60;48.30;;;17.64;77.55;95442.00;5025532;28;19923;-45
2023/07/20 02:18:09;;;;;;;;;;;21.60;48.30;;;17.63;77.84;95435.81;5030659;28;19991;-46
2023/07/20 02:20:36;;;;;;;;;;;21.60;48.30;;;17.62;78.57;95433.44;5031802;28;20379;-43
2023/07/20 02:23:02;;;;;;;;;;;21.60;48.40;;;17.62;79.35;95431.56;5031867;28;19916;-43
2023/07/20 02:25:28;;;;;;;;;;;21.50;48.40;;;17.63;81.05;95438.50;5032877;28;19916;-42
2023/07/20 02:27:53;;;;;;;;;;;21.60;48.50;;;17.60;80.42;95428.38;5035610;28;19938;-43
2023/07/20 02:30:19;;;;;;;;;;;21.60;48.60;;;17.60;79.92;95435.66;5034589;28;19916;-43
2023/07/20 02:32:48;;;;;;;;;;;21.50;48.60;;;17.60;79.91;95435.66;5035639;28;20374;-42
2023/07/20 02:35:15;;;;;;;;;;;21.50;48.70;;;17.60;79.87;95435.66;5035453;28;19916;-43
2023/07/20 02:37:42;;;;;;;;;;;21.50;48.70;;;17.60;79.75;95438.34;5023458;28;19917;-44
2023/07/20 02:40:09;;;;;;;;;;;21.50;48.70;;;17.61;79.53;95435.31;5032103;28;19909;-46
2023/07/20 02:42:35;;;;;;;;;;;21.50;48.80;;;17.60;79.44;95439.13;5034281;28;19999;-45
2023/07/20 02:45:05;;;;;;;;;;;21.50;48.90;;;17.58;79.49;95447.53;5035253;28;20007;-45
2023/07/20 02:47:31;;;;;;;;;;;21.50;48.90;;;17.57;80.20;95445.94;5034527;28;19966;-51
2023/07/20 02:49:57;;;;;;;;;;;21.50;48.90;;;17.58;80.25;95449.44;5034958;28;19912;-42
2023/07/20 02:52:24;;;;;;;;;;;21.50;49.00;;;17.58;80.13;95452.13;5035239;28;19954;-44
2023/07/20 02:54:49;;;;;;;;;;;21.50;49.00;;;17.56;80.44;95443.56;5034043;28;19931;-44
2023/07/20 02:57:15;;;;;;;;;;;21.50;49.10;;;17.52;80.85;95443.41;5035037;28;20356;-43
2023/07/20 02:59:41;;;;;;;;;;;21.50;49.10;;;17.49;80.48;95444.03;5033726;28;19992;-46
2023/07/20 03:02:09;;;;;;;;;;;21.50;49.10;;;17.48;83.17;95449.72;5033946;28;19909;-43
2023/07/20 03:04:36;;;;;;;;;;;21.50;49.20;;;17.46;84.35;95454.63;5034846;28;20008;-42
2023/07/20 03:07:04;;;;;;;;;;;21.50;49.30;;;17.46;83.45;95451.94;5033819;28;19951;-43
2023/07/20 03:09:30;;;;;;;;;;;21.40;49.30;;;17.42;82.68;95445.56;5021579;28;19909;-43
2023/07/20 03:11:56;;;;;;;;;;;21.40;49.40;;;17.41;83.30;95450.16;5033944;28;19920;-42
2023/07/20 03:14:23;;;;;;;;;;;21.40;49.50;;;17.40;83.79;95453.97;5050040;28;19921;-44
2023/07/20 03:16:49;;;;;;;;;;;21.40;49.60;;;17.37;83.69;95453.78;5024755;28;19917;-44
2023/07/20 03:19:15;;;;;;;;;;;21.30;49.60;;;17.35;84.83;95449.50;5032442;28;19909;-43
2023/07/20 03:21:41;;;;;;;;;;;21.30;49.70;;;17.32;84.63;95444.72;5034719;28;19966;-43
2023/07/20 03:24:10;;;;;;;;;;;21.30;49.80;;;17.28;84.76;95449.16;5033608;28;19915;-42
2023/07/20 03:26:36;;;;;;;;;;;21.30;49.90;;;17.27;84.75;95449.47;5034459;28;19919;-44
2023/07/20 03:29:04;;;;;;;;;;;21.20;49.90;;;17.23;84.77;95446.59;5034427;28;19908;-42
2023/07/20 03:31:29;;;;;;;;;;;21.20;50.00;;;17.17;85.67;95450.53;5033534;28;19909;-44
2023/07/20 03:33:55;;;;;;;;;;;21.10;50.00;;;17.14;85.93;95453.81;5034405;28;19916;-46
2023/07/20 03:36:22;;;;;;;;;;;21.10;50.10;;;17.10;86.10;95448.28;5033414;28;19913;-43
2023/07/20 03:38:47;;;;;;;;;;;21.10;50.20;;;17.06;86.43;95457.28;5034305;28;20028;-43
2023/07/20 03:41:15;;;;;;;;;;;21.10;50.30;;;17.02;85.99;95453.63;5034520;28;20007;-43
2023/07/20 03:43:41;;;;;;;;;;;21.00;50.30;;;17.01;88.22;95458.19;5031748;28;20394;-43
2023/07/20 03:46:07;;;;;;;;;;;21.00;50.40;;;17.00;89.13;95453.94;5034326;28;19909;-42
2023/07/20 03:48:34;;;;;;;;;;;21.00;50.50;;;16.96;88.86;95460.25;5033103;28;19909;-44
2023/07/20 03:51:00;;;;;;;;;;;20.90;50.70;;;16.95;89.26;95455.94;5034331;28;20484;-43
2023/07/20 03:53:26;;;;;;;;;;;20.90;50.80;;;16.92;89.90;95456.56;5033146;28;19916;-43
2023/07/20 03:55:53;;;;;;;;;;;20.90;50.90;;;16.90;88.24;95450.72;5024378;28;19916;-43
2023/07/20 03:58:21;;;;;;;;;;;20.90;50.90;;;16.90;87.57;95456.09;5034374;28;20385;-46
2023/07/20 04:00:52;;;;;;;;;;;20.90;51.00;;;16.88;86.91;95459.06;5028875;28;20368;-47
2023/07/20 04:03:20;;;;;;;;;;;20.90;51.00;;;16.91;86.71;95460.34;5032587;28;19909;-42
2023/07/20 04:05:46;;;;;;;;;;;20.90;51.00;;;16.93;86.28;95463.56;5033489;28;19912;-43
2023/07/20 04:08:12;;;;;;;;;;;20.90;51.10;;;16.94;86.55;95459.75;5029875;28;19917;-47
2023/07/20 04:10:39;;;;;;;;;;;20.90;51.10;;;16.96;87.65;95462.94;5025213;28;20251;-42
2023/07/20 04:13:05;;;;;;;;;;;20.90;51.10;;;16.98;87.07;95458.03;5032743;28;19939;-44
2023/07/20 04:15:31;;;;;;;;;;;20.90;51.10;;;16.98;89.00;95456.13;5033591;28;19908;-45
2023/07/20 04:17:57;;;;;;;;;;;20.90;51.10;;;16.98;88.81;95466.88;5032688;28;19923;-42
2023/07/20 04:20:24;;;;;;;;;;;21.00;51.20;;;16.99;88.89;95465.81;5034206;28;19948;-46
2023/07/20 04:22:50;;;;;;;;;;;21.00;51.30;;;17.00;88.89;95462.00;5034583;28;19912;-42
2023/07/20 04:25:17;;;;;;;;;;;21.00;51.30;;;16.98;86.19;95463.41;5033594;28;20329;-42
2023/07/20 04:27:43;;;;;;;;;;;21.00;51.30;;;16.98;82.99;95472.25;5034176;28;19955;-43
2023/07/20 04:30:11;;;;;;;;;;;21.10;51.40;;;17.09;85.80;95476.28;5032936;28;19940;-44
2023/07/20 04:32:38;;;;;;;;;;;21.10;51.30;;;17.19;85.49;95471.75;5033871;28;19935;-43
2023/07/20 04:35:10;;;;;;;;;;;21.20;51.40;;;17.26;85.82;95475.59;5033483;28;19916;-43
2023/07/20 04:37:36;;;;;;;;;;;21.30;51.40;;;17.30;85.67;95473.88;5032943;28;20387;-47
2023/07/20 04:40:03;;;;;;;;;;;21.40;51.40;;;17.33;86.14;95480.53;5033624;28;19916;-46
2023/07/20 04:42:30;;;;;;;;;;;21.40;51.30;;;17.35;86.15;95481.81;5031366;28;26685;-44
2023/07/20 04:44:56;;;;;;;;;;;21.40;51.20;;;17.35;86.44;95481.81;5033183;28;19909;-46
2023/07/20 04:47:22;;;;;;;;;;;21.50;51.30;;;17.39;86.75;95483.88;5032198;28;19955;-43
2023/07/20 04:49:48;;;;;;;;;;;21.50;51.20;;;17.33;88.54;95475.94;5032313;28;20305;-43
2023/07/20 04:52:14;;;;;;;;;;;21.50;51.20;;;17.35;84.46;95478.31;5033034;28;19909;-47
2023/07/20 04:54:40;;;;;;;;;;;21.60;51.20;;;17.37;78.89;95476.13;5031888;28;20420;-43
2023/07/20 04:57:11;;;;;;;;;;;21.70;51.10;;;17.47;80.10;95483.91;5032762;28;19913;-43
2023/07/20 04:59:37;;;;;;;;;;;21.70;51.00;;;17.52;80.71;95485.69;5017956;28;20027;-48
2023/07/20 05:02:02;;;;;;;;;;;21.80;51.00;;;17.60;80.32;95481.44;5032612;28;19968;-43
2023/07/20 05:04:28;;;;;;;;;;;21.80;50.90;;;17.66;79.37;95488.28;5032765;28;20011;-44
2023/07/20 05:06:54;;;;;;;;;;;21.90;50.90;;;17.70;77.37;95487.31;5031553;28;19912;-47
2023/07/20 05:09:20;;;;;;;;;;;21.90;50.80;;;17.75;78.04;95486.41;5019476;28;19931;-43
2023/07/20 05:11:47;;;;;;;;;;;21.90;50.70;;;17.82;77.59;95491.38;5031750;28;20023;-45
2023/07/20 05:14:13;;;;;;;;;;;22.00;50.70;;;17.87;78.33;95488.53;5032219;28;19913;-44
2023/07/20 05:16:39;;;;;;;;;;;22.00;50.60;;;17.90;78.76;95486.00;5036017;23;19928;-49
2023/07/20 05:19:05;;;;;;;;;;;22.10;50.60;;;17.94;78.96;95489.66;5018237;28;19916;-48
2023/07/20 05:21:30;;;;;;;;;;;22.10;50.50;;;18.00;79.65;95485.72;5022052;28;19913;-49
2023/07/20 05:23:56;;;;;;;;;;;22.20;50.50;;;18.02;76.58;95488.09;5030650;28;19924;-47
2023/07/20 05:26:22;;;;;;;;;;;22.30;50.40;;;18.08;75.92;95480.63;5026108;28;20379;-47
2023/07/20 05:28:47;;;;;;;;;;;22.40;50.20;;;18.18;74.99;95480.38;5011715;28;19916;-47
2023/07/20 05:31:13;;;;;;;;;;;22.60;50.10;;;18.11;70.85;95477.31;5011217;28;19909;-47
2023/07/20 05:33:39;;;;;;;;;;;22.70;50.00;;;18.21;70.15;95477.81;4991330;28;20003;-48
2023/07/20 05:36:05;;;;;;;;;;;22.70;49.80;;;18.41;68.40;95479.09;4991668;28;19956;-50
2023/07/20 05:38:30;;;;;;;;;;;22.80;49.60;;;18.56;66.96;95485.94;4991842;28;19952;-47
2023/07/20 05:41:03;;;;;;;;;;;23.00;49.50;;;18.57;66.02;95471.31;5004685;28;19917;-48
2023/07/20 05:43:29;;;;;;;;;;;23.10;49.30;;;18.69;64.91;95478.78;5008150;28;19974;-47
2023/07/20 05:45:55;;;;;;;;;;;23.20;49.00;;;18.83;64.73;95475.94;4997537;28;19910;-47
2023/07/20 05:48:21;;;;;;;;;;;23.40;49.00;;;18.91;63.47;95470.53;5005081;28;20387;-48
2023/07/20 05:50:46;;;;;;;;;;;23.40;48.70;;;18.90;64.45;95474.34;5011158;28;19955;-48
2023/07/20 05:53:12;;;;;;;;;;;23.50;48.60;;;18.91;63.07;95477.84;5011126;28;19909;-47
2023/07/20 05:55:39;;;;;;;;;;;23.60;48.40;;;18.96;62.53;95469.59;4996600;28;20376;-51
2023/07/20 05:58:05;;;;;;;;;;;23.70;48.10;;;18.98;63.03;95471.97;5010884;28;20007;-48
2023/07/20 06:00:31;;;;;;;;;;;23.80;47.90;;;18.98;61.79;95477.34;5014236;28;20004;-48
2023/07/20 06:02:57;;;;;;;;;;;23.80;47.80;;;18.85;62.56;95479.13;5015513;28;20371;-47
2023/07/20 06:05:23;;;;;;;;;;;23.90;47.60;;;18.95;61.95;95474.16;5009239;28;19915;-47
2023/07/20 06:07:50;;;;;;;;;;;23.90;48.10;;;18.99;62.52;95478.94;5009500;28;19974;-47
2023/07/20 06:10:16;;;;;;;;;;;24.00;47.40;;;19.08;63.64;95480.50;5008845;28;20264;-47
2023/07/20 06:12:41;;;;;;;;;;;24.00;47.20;;;19.08;62.47;95469.69;5013045;28;19916;-48
2023/07/20 06:15:31;;;;;;;;;;;24.10;47.10;;;19.26;60.31;95478.56;5029948;28;19967;-47
2023/07/20 06:17:57;;;;;;;;;;;24.20;46.90;;;19.40;61.13;95481.06;5010743;28;19936;-47
2023/07/20 06:20:24;;;;;;;;;;;24.30;46.70;;;19.46;59.39;95468.97;4995296;28;19941;-47
2023/07/20 06:22:50;;;;;;;;;;;24.40;46.60;;;19.37;59.56;95470.91;5006132;28;19917;-47
2023/07/20 06:25:16;;;;;;;;;;;24.40;46.40;;;19.21;59.96;95467.94;5010172;28;19908;-51
2023/07/20 06:27:43;;;;;;;;;;;24.40;46.30;;;19.33;60.64;95468.03;5014455;28;20016;-47
2023/07/20 06:30:10;;;;;;;;;;;24.40;46.10;;;19.53;59.73;95471.97;5010104;28;19916;-49
2023/07/20 06:32:36;;;;;;;;;;;24.50;46.00;;;19.68;58.67;95478.78;5006185;28;19963;-48
2023/07/20 06:35:02;;;;;;;;;;;24.70;45.90;;;19.64;58.11;95472.41;5015093;28;20364;-48
2023/07/20 06:37:27;;;;;;;;;;;24.80;45.60;;;19.92;58.26;95474.66;5013606;28;19917;-48
2023/07/20 06:39:53;;;;;;;;;;;25.10;45.40;;;20.11;57.50;95472.31;5001414;28;19916;-47
2023/07/20 06:42:19;;;;;;;;;;;25.40;45.30;;;20.18;56.85;95471.78;5013235;28;20015;-47
2023/07/20 06:44:45;;;;;;;;;;;25.50;45.10;;;20.07;58.14;95474.88;5014560;28;19909;-47
2023/07/20 06:47:11;;;;;;;;;;;25.60;45.00;;;20.10;57.62;95473.44;5014236;28;20273;-47
2023/07/20 06:49:36;;;;;;;;;;;25.60;44.80;;;20.07;56.20;95479.50;5028953;28;19940;-48
2023/07/20 06:52:02;;;;;;;;;;;25.60;44.60;;;19.89;58.72;95476.09;5004291;28;19910;-50
2023/07/20 06:54:28;;;;;;;;;;;25.60;44.40;;;20.09;57.42;95475.38;5000137;28;20039;-48
2023/07/20 06:56:54;;;;;;;;;;;25.70;44.40;;;20.32;57.86;95475.84;5014022;28;20048;-48
2023/07/20 06:59:20;;;;;;;;;;;25.80;44.30;;;20.27;57.12;95478.72;5014450;28;19963;-47
2023/07/20 07:01:46;;;;;;;;;;;25.90;44.20;;;20.46;56.50;95472.06;5002524;28;19917;-47
2023/07/20 07:04:12;;;;;;;;;;;26.00;44.00;;;20.23;57.21;95477.81;5012025;28;19909;-47
2023/07/20 07:06:38;;;;;;;;;;;26.10;43.90;;;20.20;57.72;95475.75;5012753;28;19936;-48
2023/07/20 07:09:04;;;;;;;;;;;26.10;43.80;;;20.31;56.79;95482.38;5001217;28;19909;-47
2023/07/20 07:11:30;;;;;;;;;;;26.10;43.60;;;20.38;57.70;95475.66;5028810;28;19944;-48
2023/07/20 07:13:56;;;;;;;;;;;26.10;43.50;;;20.75;55.80;95477.44;5004031;28;19916;-47
2023/07/20 07:16:22;;;;;;;;;;;26.20;43.50;;;20.85;55.03;95473.53;5013608;28;19921;-47
2023/07/20 07:18:50;;;;;;;;;;;26.30;43.40;;;20.94;53.87;95471.53;5013011;28;19912;-49
2023/07/20 07:21:16;;;;;;;;;;;26.40;43.30;;;21.09;53.32;95480.97;5014115;28;19908;-48
2023/07/20 07:23:42;;;;;;;;;;;26.50;43.20;;;21.23;53.93;95483.38;5013193;28;19923;-50
2023/07/20 07:26:11;;;;;;;;;;;26.60;43.00;;;21.20;54.25;95484.81;5013288;28;19909;-51
2023/07/20 07:28:38;;;;;;;;;;;26.70;42.90;;;21.25;54.51;95481.91;5013899;28;19960;-48
2023/07/20 07:31:07;;;;;;;;;;;26.60;42.80;;;21.49;53.80;95480.38;5013191;28;20326;-48
2023/07/20 07:33:34;;;;;;;;;;;26.70;42.80;;;21.61;53.30;95485.81;5013858;28;20007;-48
2023/07/20 07:36:00;;;;;;;;;;;26.80;42.70;;;21.68;53.36;95475.22;5009908;28;19913;-47
2023/07/20 07:38:25;;;;;;;;;;;26.80;42.60;;;21.72;52.73;95467.22;4997369;28;19909;-47
2023/07/20 07:40:51;;;;;;;;;;;26.80;42.50;;;21.61;52.94;95468.78;5013628;28;20425;-47
2023/07/20 07:43:17;;;;;;;;;;;26.80;42.40;;;21.75;53.30;95463.00;5012553;28;19920;-47
2023/07/20 07:45:43;;;;;;;;;;;27.00;42.20;;;22.04;52.26;95468.22;5003814;28;19910;-48
2023/07/20 07:48:11;;;;;;;;;;;27.40;41.90;;;22.21;50.22;95478.03;5008853;28;19940;-51
2023/07/20 07:50:37;;;;;;;;;;;27.60;41.70;;;22.26;51.12;95466.97;5003436;28;20307;-45
2023/07/20 07:53:03;;;;;;;;;;;27.80;41.40;;;22.28;51.07;95472.03;4993706;28;19910;-45
2023/07/20 07:55:28;;;;;;;;;;;27.90;41.30;;;22.47;49.98;95471.44;5007896;28;20024;-45
2023/07/20 07:57:55;;;;;;;;;;;28.10;41.10;;;22.44;51.25;95472.94;5000819;28;19967;-45
2023/07/20 08:00:21;;;;;;;;;;;28.10;41.00;;;22.75;50.96;95471.47;4996423;28;19940;-51
2023/07/20 08:02:48;;;;;;;;;;;28.40;40.80;;;23.03;49.12;95472.31;4992921;28;19944;-49
2023/07/20 08:05:14;;;;;;;;;;;28.70;40.70;;;23.52;48.34;95477.44;5006333;28;19946;-49
2023/07/20 08:07:40;;;;;;;;;;;29.20;40.30;;;24.07;46.62;95471.38;5007492;28;19917;-47
2023/07/20 08:10:06;;;;;;;;;;;29.80;40.60;;;24.56;46.24;95468.22;4999859;28;19916;-46
2023/07/20 08:12:32;;;;;;;;;;;30.30;39.80;;;24.75;44.85;95473.69;5002404;28;19910;-47
2023/07/20 08:14:59;;;;;;;;;;;30.60;39.40;;;25.26;44.76;95472.72;4995077;28;19935;-55
2023/07/20 08:17:25;;;;;;;;;;;31.20;39.10;;;25.02;43.62;95463.72;4994030;28;19924;-49
2023/07/20 08:19:51;;;;;;;;;;;31.50;38.80;;;25.48;44.19;95461.09;4993691;28;20269;-48
2023/07/20 08:22:17;;;;;;;;;;;32.00;38.30;;;25.79;43.33;95462.78;4989664;28;19982;-53
2023/07/20 08:24:44;;;;;;;;;;;32.30;38.00;;;25.83;42.52;95458.19;4993012;28;19913;-47
2023/07/20 08:27:10;;;;;;;;;;;32.40;37.80;;;26.43;40.79;95462.94;5025303;28;19913;-46
2023/07/20 08:29:37;;;;;;;;;;;32.80;37.30;;;26.62;39.92;95458.56;4991961;28;19963;-49
2023/07/20 08:32:04;;;;;;;;;;;33.30;36.90;;;27.10;39.32;95462.22;4993989;28;19909;-47
2023/07/20 08:34:31;;;;;;;;;;;33.60;36.50;;;27.34;38.11;95460.19;4991609;28;19963;-47
2023/07/20 08:36:57;;;;;;;;;;;33.90;36.20;;;27.75;37.79;95462.91;4994636;28;19917;-46
2023/07/20 08:39:24;;;;;;;;;;;34.10;35.80;;;28.18;37.32;95476.94;5004379;28;19913;-46
2023/07/20 08:41:51;;;;;;;;;;;34.30;36.30;;;28.60;37.70;95468.22;4993762;28;19963;-47
2023/07/20 08:44:17;;;;;;;;;;;34.70;35.70;;;29.07;35.76;95469.22;4997471;28;19913;-46
2023/07/20 08:46:44;;;;;;;;;;;35.00;35.40;;;28.60;35.55;95466.25;5001452;28;19989;-48
2023/07/20 08:49:11;;;;;;;;;;;35.20;34.90;;;28.84;35.20;95455.81;5007501;28;19915;-51
2023/07/20 08:51:39;;;;;;;;;;;35.20;34.60;;;29.04;34.85;95450.81;5002902;28;19913;-46
2023/07/20 08:54:06;;;;;;;;;;;35.40;34.50;;;29.22;35.21;95451.66;5005856;28;19914;-46
2023/07/20 08:56:34;;;;;;;;;;;35.70;34.40;;;29.37;33.30;95451.69;5001220;28;19958;-47
2023/07/20 08:59:01;;;;;;;;;;;35.90;34.00;;;29.57;32.86;95455.63;4999199;28;19913;-48
2023/07/20 09:01:29;;;;;;;;;;;36.10;33.70;;;29.68;32.22;95450.19;5000848;28;20430;-47
2023/07/20 09:03:56;;;;;;;;;;;36.30;33.40;;;30.10;32.92;95448.59;5001447;28;20027;-47
2023/07/20 09:06:22;;;;;;;;;;;36.50;33.00;;;30.27;32.08;95447.78;5008629;28;20290;-52
2023/07/20 09:08:48;;;;;;;;;;;36.60;32.90;;;30.58;32.03;95442.63;5006335;28;19964;-47
2023/07/20 09:11:15;;;;;;;;;;;36.80;32.50;;;30.09;32.62;95444.28;5004650;28;19986;-46
2023/07/20 09:13:40;;;;;;;;;;;37.00;32.30;;;30.44;32.01;95443.47;5007408;28;19916;-47
2023/07/20 09:16:06;;;;;;;;;;;37.10;32.00;;;30.36;32.90;95442.69;4998555;28;19910;-51
2023/07/20 09:18:34;;;;;;;;;;;37.10;32.30;;;30.42;32.13;95443.06;5008912;28;19913;-46
2023/07/20 09:21:08;;;;;;;;;;;37.00;31.60;;;30.45;31.71;95436.78;4992456;28;19916;-52
2023/07/20 09:23:36;;;;;;;;;;;37.10;31.40;;;30.25;32.53;95435.66;4993754;28;19915;-49
2023/07/20 09:26:16;;;;;;;;;;;37.10;31.20;;;30.61;32.64;95434.38;5006960;28;19916;-46
2023/07/20 09:28:51;;;;;;;;;;;37.10;31.10;;;30.54;31.97;95430.88;5002583;28;20007;-47
2023/07/20 09:31:20;;;;;;;;;;;37.30;31.00;;;30.76;31.79;95428.81;5026596;28;19913;-46
2023/07/20 09:33:48;;;;;;;;;;;37.40;31.00;;;31.19;31.01;95426.69;4999106;28;19909;-47
2023/07/20 09:36:14;;;;;;;;;;;37.50;30.90;;;31.42;30.95;95425.38;5007634;28;19932;-46
2023/07/20 09:38:43;;;;;;;;;;;37.60;30.80;;;31.37;31.05;95425.81;4998449;28;19921;-47
2023/07/20 09:41:18;;;;;;;;;;;37.80;31.30;;;31.45;31.18;95428.09;4998753;28;19917;-51
2023/07/20 09:43:45;;;;;;;;;;;38.00;30.30;;;31.46;31.58;95420.63;5001868;28;20330;-46
2023/07/20 09:46:11;;;;;;;;;;;38.20;30.20;;;31.44;30.76;95423.03;4998660;28;19909;-49
2023/07/20 09:48:37;;;;;;;;;;;38.30;30.00;;;31.67;30.07;95411.44;5009049;28;19921;-47
2023/07/20 09:51:06;;;;;;;;;;;38.50;29.80;;;31.65;31.56;95414.59;5000305;28;20340;-47
2023/07/20 09:53:34;;;;;;;;;;;38.60;29.90;;;31.87;31.33;95415.22;4998220;28;19921;-48
2023/07/20 09:56:00;;;;;;;;;;;38.70;29.40;;;31.90;30.63;95408.91;5010682;28;20000;-52
2023/07/20 09:58:27;;;;;;;;;;;38.90;29.00;;;32.62;29.66;95416.47;5008070;28;19943;-51
2023/07/20 10:01:00;;;;;;;;;;;39.00;29.00;;;33.02;29.42;95403.78;4991982;28;20390;-47
2023/07/20 10:03:32;;;;;;;;;;;39.10;29.00;;;32.94;29.66;95403.06;4994366;28;20004;-47
2023/07/20 10:06:07;;;;;;;;;;;39.20;29.00;;;33.12;30.96;95400.09;5002002;28;19921;-48
2023/07/20 10:08:41;;;;;;;;;;;39.50;29.40;;;33.17;29.36;95388.59;5005410;28;19913;-49
2023/07/20 10:11:12;;;;;;;;;;;39.50;28.70;;;33.13;30.67;95398.91;5011602;28;20273;-47
2023/07/20 10:13:39;;;;;;;;;;;39.40;28.70;;;32.81;30.19;95396.56;5007977;28;19917;-50
2023/07/20 10:16:12;;;;;;;;;;;39.40;28.70;;;32.72;30.07;95391.53;4996383;28;19959;-47
2023/07/20 10:19:11;;;;;;;;;;;39.50;28.70;;;32.69;29.79;95391.59;5006950;28;19928;-48
2023/07/20 10:21:45;;;;;;;;;;;39.70;28.50;;;32.33;30.45;95388.41;4996038;28;19940;-47
2023/07/20 10:24:12;;;;;;;;;;;39.50;28.50;;;31.80;31.64;95391.25;4994293;28;20000;-47
2023/07/20 10:26:38;;;;;;;;;;;39.00;28.50;;;30.71;33.26;95385.25;5007498;28;19913;-53
2023/07/20 10:29:06;;;;;;;;;;;38.40;28.70;;;30.49;32.86;95382.59;4999022;28;19909;-47
2023/07/20 10:31:33;;;;;;;;;;;37.80;28.90;;;30.65;32.78;95380.19;5009447;28;19909;-48
2023/07/20 10:34:00;;;;;;;;;;;37.60;28.90;;;30.78;32.40;95374.28;4991797;28;19920;-47
2023/07/20 10:36:28;;;;;;;;;;;37.70;28.80;;;30.59;31.68;95368.03;5019302;28;19917;-49
2023/07/20 10:38:57;;;;;;;;;;;37.50;28.90;;;30.33;32.33;95368.53;5000854;28;19917;-48
2023/07/20 10:41:34;;;;;;;;;;;37.40;28.90;;;30.52;32.42;95365.31;5004482;28;19917;-47
2023/07/20 10:44:06;;;;;;;;;;;37.40;28.80;;;30.73;31.81;95363.66;5008587;28;19909;-47
2023/07/20 10:46:38;;;;;;;;;;;37.70;28.70;;;31.05;31.80;95369.00;4999819;28;20261;-47
2023/07/20 10:49:07;;;;;;;;;;;37.80;28.60;;;31.59;32.21;95358.44;5011147;28;20421;-49
2023/07/20 10:52:01;;;;;;;;;;;38.00;28.60;;;31.74;29.80;95356.31;4999999;28;19959;-50
2023/07/20 10:54:27;;;;;;;;;;;38.50;28.50;;;31.96;29.45;95356.91;4998282;28;20284;-47
2023/07/20 10:56:55;;;;;;;;;;;38.90;28.40;;;31.89;29.59;95351.50;5004587;28;19920;-48
2023/07/20 10:59:24;;;;;;;;;;;39.00;28.00;;;32.48;28.66;95351.28;4997473;28;19948;-48
2023/07/20 11:02:01;;;;;;;;;;;39.30;27.90;;;32.83;28.33;95346.50;4999629;28;19913;-48
2023/07/20 11:04:40;;;;;;;;;;;39.60;27.60;;;33.00;28.63;95345.50;5007643;28;19916;-49
2023/07/20 11:07:06;;;;;;;;;;;39.90;27.50;;;33.04;28.80;95337.94;5007257;28;19983;-48
2023/07/20 11:09:37;;;;;;;;;;;39.90;27.50;;;32.38;28.98;95343.88;5002048;28;19931;-47
2023/07/20 11:12:17;;;;;;;;;;;40.00;27.10;;;32.29;29.47;95341.63;5013200;28;19948;-48
2023/07/20 11:14:59;;;;;;;;;;;40.20;26.70;;;33.08;28.56;95348.94;5012465;28;19940;-48
2023/07/20 11:17:32;;;;;;;;;;;40.40;26.70;;;33.34;27.39;95341.81;5003830;28;19917;-51
2023/07/20 11:20:01;;;;;;;;;;;40.70;26.80;;;33.72;27.01;95341.63;5000071;28;19919;-48